Knob Lick, Missouri
Current Conditions -  °F | °C
As of 3:15 PM on Tuesday 21 Oct 2014 (Local Time) from KFAM Reporting Station
Clear Clear  
Wind Chill: 70°   Ceiling: Unl
Heat Index: 70°   Visibility: 9mi
Dew Point: 46°   Wind: 6mph
Humidity: 43%   Direction: 320°NW
Pressure: 30.11"   Gusts: NA
Location:  37.68°N, 90.37°W
Report Text: KFAM 212015Z AUTO 32005KT 9SM CLR 21/08 A3011 RMK AO1
Loading
Personal Weather Stations






























Interactive Weather Map
Tropical Storm Tracking
New forecast layout! Learn more

10-Day Weather Forecast

Advertisements
Track Severe Weather on mobile